sensor_id;sensor_type;location;lat;lon;timestamp;P1;durP1;ratioP1;P2;durP2;ratioP2
67861;SDS011;54665;51.462;6.698;2023-05-10T00:00:40;21.67;;;7.47;;
67861;SDS011;54665;51.462;6.698;2023-05-10T00:03:05;17.77;;;6.30;;
67861;SDS011;54665;51.462;6.698;2023-05-10T00:05:31;17.90;;;6.55;;
67861;SDS011;54665;51.462;6.698;2023-05-10T00:07:57;20.60;;;6.40;;
67861;SDS011;54665;51.462;6.698;2023-05-10T00:10:22;20.40;;;7.03;;
67861;SDS011;54665;51.462;6.698;2023-05-10T00:12:48;20.83;;;6.75;;
67861;SDS011;54665;51.462;6.698;2023-05-10T00:15:13;26.50;;;8.47;;
67861;SDS011;54665;51.462;6.698;2023-05-10T00:17:39;28.00;;;7.90;;
67861;SDS011;54665;51.462;6.698;2023-05-10T00:20:04;24.60;;;8.35;;
67861;SDS011;54665;51.462;6.698;2023-05-10T00:22:31;26.15;;;8.68;;
67861;SDS011;54665;51.462;6.698;2023-05-10T00:24:57;23.10;;;7.63;;
67861;SDS011;54665;51.462;6.698;2023-05-10T00:27:22;27.55;;;8.15;;
67861;SDS011;54665;51.462;6.698;2023-05-10T00:29:48;27.23;;;8.20;;
67861;SDS011;54665;51.462;6.698;2023-05-10T00:32:13;27.60;;;8.47;;
67861;SDS011;54665;51.462;6.698;2023-05-10T00:34:39;27.65;;;9.07;;
67861;SDS011;54665;51.462;6.698;2023-05-10T00:37:04;25.77;;;8.77;;
67861;SDS011;54665;51.462;6.698;2023-05-10T00:39:31;28.63;;;9.02;;
67861;SDS011;54665;51.462;6.698;2023-05-10T00:41:57;29.77;;;9.40;;
67861;SDS011;54665;51.462;6.698;2023-05-10T00:44:22;32.50;;;9.73;;
67861;SDS011;54665;51.462;6.698;2023-05-10T00:46:48;30.80;;;9.52;;
67861;SDS011;54665;51.462;6.698;2023-05-10T00:49:14;27.30;;;8.37;;
67861;SDS011;54665;51.462;6.698;2023-05-10T00:51:40;26.10;;;8.93;;
67861;SDS011;54665;51.462;6.698;2023-05-10T00:54:08;27.20;;;8.70;;
67861;SDS011;54665;51.462;6.698;2023-05-10T00:56:35;25.70;;;8.80;;
67861;SDS011;54665;51.462;6.698;2023-05-10T00:59:01;28.52;;;9.60;;
67861;SDS011;54665;51.462;6.698;2023-05-10T01:01:27;28.43;;;9.07;;
67861;SDS011;54665;51.462;6.698;2023-05-10T01:03:53;29.25;;;9.32;;
67861;SDS011;54665;51.462;6.698;2023-05-10T01:06:20;30.90;;;8.95;;
67861;SDS011;54665;51.462;6.698;2023-05-10T01:08:45;29.87;;;9.60;;
67861;SDS011;54665;51.462;6.698;2023-05-10T01:11:12;30.15;;;9.35;;
67861;SDS011;54665;51.462;6.698;2023-05-10T01:13:38;31.93;;;9.90;;
67861;SDS011;54665;51.462;6.698;2023-05-10T01:16:07;32.97;;;9.90;;
67861;SDS011;54665;51.462;6.698;2023-05-10T01:18:37;29.75;;;8.70;;
67861;SDS011;54665;51.462;6.698;2023-05-10T01:29:18;28.55;;;9.15;;
67861;SDS011;54665;51.462;6.698;2023-05-10T01:32:15;27.70;;;9.10;;
67861;SDS011;54665;51.462;6.698;2023-05-10T01:34:48;32.03;;;9.27;;
67861;SDS011;54665;51.462;6.698;2023-05-10T01:37:32;31.23;;;9.00;;
67861;SDS011;54665;51.462;6.698;2023-05-10T01:40:08;29.15;;;9.30;;
67861;SDS011;54665;51.462;6.698;2023-05-10T01:42:41;32.03;;;9.65;;
67861;SDS011;54665;51.462;6.698;2023-05-10T01:45:32;26.58;;;8.63;;
67861;SDS011;54665;51.462;6.698;2023-05-10T01:48:06;28.33;;;8.27;;
67861;SDS011;54665;51.462;6.698;2023-05-10T01:50:35;26.60;;;8.50;;
67861;SDS011;54665;51.462;6.698;2023-05-10T01:53:05;28.48;;;9.95;;
67861;SDS011;54665;51.462;6.698;2023-05-10T01:55:32;31.15;;;9.20;;
67861;SDS011;54665;51.462;6.698;2023-05-10T01:58:05;29.15;;;9.00;;
67861;SDS011;54665;51.462;6.698;2023-05-10T02:00:33;31.58;;;9.50;;
67861;SDS011;54665;51.462;6.698;2023-05-10T02:03:00;31.30;;;9.97;;
67861;SDS011;54665;51.462;6.698;2023-05-10T02:05:32;36.58;;;9.77;;
67861;SDS011;54665;51.462;6.698;2023-05-10T02:07:59;34.13;;;10.25;;
67861;SDS011;54665;51.462;6.698;2023-05-10T02:10:28;34.53;;;10.90;;
67861;SDS011;54665;51.462;6.698;2023-05-10T02:12:54;33.75;;;10.65;;
67861;SDS011;54665;51.462;6.698;2023-05-10T02:15:22;37.73;;;10.67;;
67861;SDS011;54665;51.462;6.698;2023-05-10T02:17:48;32.67;;;10.43;;
67861;SDS011;54665;51.462;6.698;2023-05-10T02:20:15;31.80;;;9.90;;
67861;SDS011;54665;51.462;6.698;2023-05-10T02:22:43;30.98;;;9.85;;
67861;SDS011;54665;51.462;6.698;2023-05-10T02:25:10;33.67;;;10.13;;
67861;SDS011;54665;51.462;6.698;2023-05-10T02:27:38;36.47;;;11.10;;
67861;SDS011;54665;51.462;6.698;2023-05-10T02:30:07;39.63;;;11.73;;
67861;SDS011;54665;51.462;6.698;2023-05-10T02:32:33;39.67;;;11.35;;
67861;SDS011;54665;51.462;6.698;2023-05-10T02:35:00;35.63;;;10.63;;
67861;SDS011;54665;51.462;6.698;2023-05-10T02:37:27;40.22;;;11.40;;
67861;SDS011;54665;51.462;6.698;2023-05-10T02:39:53;33.53;;;10.87;;
67861;SDS011;54665;51.462;6.698;2023-05-10T02:42:22;38.10;;;10.80;;
67861;SDS011;54665;51.462;6.698;2023-05-10T02:44:50;40.20;;;11.23;;
67861;SDS011;54665;51.462;6.698;2023-05-10T02:47:17;36.53;;;10.63;;
67861;SDS011;54665;51.462;6.698;2023-05-10T02:49:43;37.10;;;10.65;;
67861;SDS011;54665;51.462;6.698;2023-05-10T02:52:09;35.67;;;10.53;;
67861;SDS011;54665;51.462;6.698;2023-05-10T02:54:39;35.85;;;10.63;;
67861;SDS011;54665;51.462;6.698;2023-05-10T02:57:08;34.95;;;10.00;;
67861;SDS011;54665;51.462;6.698;2023-05-10T02:59:38;37.58;;;10.80;;
67861;SDS011;54665;51.462;6.698;2023-05-10T03:02:03;35.63;;;9.83;;
67861;SDS011;54665;51.462;6.698;2023-05-10T03:04:29;33.53;;;9.63;;
67861;SDS011;54665;51.462;6.698;2023-05-10T03:06:56;33.23;;;10.00;;
67861;SDS011;54665;51.462;6.698;2023-05-10T03:09:21;36.00;;;10.27;;
67861;SDS011;54665;51.462;6.698;2023-05-10T03:12:00;32.97;;;9.37;;
67861;SDS011;54665;51.462;6.698;2023-05-10T03:17:23;32.55;;;9.73;;
67861;SDS011;54665;51.462;6.698;2023-05-10T03:20:08;34.22;;;10.00;;
67861;SDS011;54665;51.462;6.698;2023-05-10T03:22:37;36.95;;;10.02;;
67861;SDS011;54665;51.462;6.698;2023-05-10T03:25:08;33.60;;;9.47;;
67861;SDS011;54665;51.462;6.698;2023-05-10T03:27:36;33.25;;;9.60;;
67861;SDS011;54665;51.462;6.698;2023-05-10T03:30:05;30.10;;;9.32;;
67861;SDS011;54665;51.462;6.698;2023-05-10T03:32:34;31.38;;;9.68;;
67861;SDS011;54665;51.462;6.698;2023-05-10T03:35:05;31.30;;;9.32;;
67861;SDS011;54665;51.462;6.698;2023-05-10T03:37:38;33.17;;;9.90;;
67861;SDS011;54665;51.462;6.698;2023-05-10T03:40:04;29.10;;;8.77;;
67861;SDS011;54665;51.462;6.698;2023-05-10T03:42:33;30.75;;;9.20;;
67861;SDS011;54665;51.462;6.698;2023-05-10T03:44:58;29.03;;;9.30;;
67861;SDS011;54665;51.462;6.698;2023-05-10T03:47:23;29.97;;;9.60;;
67861;SDS011;54665;51.462;6.698;2023-05-10T03:49:49;31.73;;;9.63;;
67861;SDS011;54665;51.462;6.698;2023-05-10T03:52:14;31.07;;;9.47;;
67861;SDS011;54665;51.462;6.698;2023-05-10T03:54:40;31.97;;;9.87;;
67861;SDS011;54665;51.462;6.698;2023-05-10T03:57:06;31.63;;;10.00;;
67861;SDS011;54665;51.462;6.698;2023-05-10T03:59:31;32.80;;;9.83;;
67861;SDS011;54665;51.462;6.698;2023-05-10T04:01:57;37.67;;;10.55;;
67861;SDS011;54665;51.462;6.698;2023-05-10T04:04:22;36.30;;;10.60;;
67861;SDS011;54665;51.462;6.698;2023-05-10T04:06:49;41.67;;;11.15;;
67861;SDS011;54665;51.462;6.698;2023-05-10T04:09:14;33.40;;;10.17;;
67861;SDS011;54665;51.462;6.698;2023-05-10T04:11:41;36.15;;;10.70;;
67861;SDS011;54665;51.462;6.698;2023-05-10T04:14:06;36.93;;;10.80;;
67861;SDS011;54665;51.462;6.698;2023-05-10T04:16:32;34.92;;;10.38;;
67861;SDS011;54665;51.462;6.698;2023-05-10T04:18:57;37.53;;;10.57;;
67861;SDS011;54665;51.462;6.698;2023-05-10T04:21:23;35.83;;;11.13;;
67861;SDS011;54665;51.462;6.698;2023-05-10T04:23:48;34.97;;;10.40;;
67861;SDS011;54665;51.462;6.698;2023-05-10T04:26:13;41.17;;;10.83;;
67861;SDS011;54665;51.462;6.698;2023-05-10T04:28:39;40.97;;;11.00;;
67861;SDS011;54665;51.462;6.698;2023-05-10T04:31:05;39.40;;;11.68;;
67861;SDS011;54665;51.462;6.698;2023-05-10T04:33:31;39.47;;;11.68;;
67861;SDS011;54665;51.462;6.698;2023-05-10T04:35:57;38.00;;;11.10;;
67861;SDS011;54665;51.462;6.698;2023-05-10T04:38:23;40.70;;;11.27;;
67861;SDS011;54665;51.462;6.698;2023-05-10T04:40:48;40.10;;;11.77;;
67861;SDS011;54665;51.462;6.698;2023-05-10T04:43:14;41.47;;;12.50;;
67861;SDS011;54665;51.462;6.698;2023-05-10T04:45:39;45.43;;;13.37;;
67861;SDS011;54665;51.462;6.698;2023-05-10T04:48:05;43.00;;;12.73;;
67861;SDS011;54665;51.462;6.698;2023-05-10T04:50:30;42.53;;;12.90;;
67861;SDS011;54665;51.462;6.698;2023-05-10T04:52:56;44.97;;;13.07;;
67861;SDS011;54665;51.462;6.698;2023-05-10T04:55:22;46.20;;;13.37;;
67861;SDS011;54665;51.462;6.698;2023-05-10T04:57:47;46.70;;;13.68;;
67861;SDS011;54665;51.462;6.698;2023-05-10T05:00:12;47.20;;;12.80;;
67861;SDS011;54665;51.462;6.698;2023-05-10T05:02:41;47.47;;;14.60;;
67861;SDS011;54665;51.462;6.698;2023-05-10T05:05:07;43.88;;;13.85;;
67861;SDS011;54665;51.462;6.698;2023-05-10T05:07:33;48.85;;;14.48;;
67861;SDS011;54665;51.462;6.698;2023-05-10T05:09:58;50.87;;;14.93;;
67861;SDS011;54665;51.462;6.698;2023-05-10T05:12:23;47.57;;;14.30;;
67861;SDS011;54665;51.462;6.698;2023-05-10T05:14:49;54.10;;;16.13;;
67861;SDS011;54665;51.462;6.698;2023-05-10T05:17:14;52.60;;;14.97;;
67861;SDS011;54665;51.462;6.698;2023-05-10T05:19:40;46.45;;;14.52;;
67861;SDS011;54665;51.462;6.698;2023-05-10T05:22:06;52.93;;;15.70;;
67861;SDS011;54665;51.462;6.698;2023-05-10T05:24:35;48.92;;;15.15;;
67861;SDS011;54665;51.462;6.698;2023-05-10T05:27:04;51.38;;;15.05;;
67861;SDS011;54665;51.462;6.698;2023-05-10T05:29:29;47.70;;;14.77;;
67861;SDS011;54665;51.462;6.698;2023-05-10T05:31:55;49.33;;;14.57;;
67861;SDS011;54665;51.462;6.698;2023-05-10T05:34:20;52.17;;;16.30;;
67861;SDS011;54665;51.462;6.698;2023-05-10T05:36:47;52.28;;;15.57;;
67861;SDS011;54665;51.462;6.698;2023-05-10T05:39:12;48.13;;;16.10;;
67861;SDS011;54665;51.462;6.698;2023-05-10T05:41:38;55.80;;;16.97;;
67861;SDS011;54665;51.462;6.698;2023-05-10T05:44:03;56.73;;;17.17;;
67861;SDS011;54665;51.462;6.698;2023-05-10T05:46:28;52.00;;;16.63;;
67861;SDS011;54665;51.462;6.698;2023-05-10T05:48:54;55.03;;;17.48;;
67861;SDS011;54665;51.462;6.698;2023-05-10T05:51:20;56.17;;;16.57;;
67861;SDS011;54665;51.462;6.698;2023-05-10T05:53:46;54.83;;;17.27;;
67861;SDS011;54665;51.462;6.698;2023-05-10T05:56:11;53.77;;;17.07;;
67861;SDS011;54665;51.462;6.698;2023-05-10T05:58:37;55.47;;;17.03;;
67861;SDS011;54665;51.462;6.698;2023-05-10T06:01:02;54.70;;;16.47;;
67861;SDS011;54665;51.462;6.698;2023-05-10T06:03:27;57.10;;;18.07;;
67861;SDS011;54665;51.462;6.698;2023-05-10T06:05:53;51.65;;;15.70;;
67861;SDS011;54665;51.462;6.698;2023-05-10T06:08:18;53.33;;;16.37;;
67861;SDS011;54665;51.462;6.698;2023-05-10T06:10:43;52.80;;;16.43;;
67861;SDS011;54665;51.462;6.698;2023-05-10T06:13:10;59.38;;;18.05;;
67861;SDS011;54665;51.462;6.698;2023-05-10T06:15:35;52.47;;;16.57;;
67861;SDS011;54665;51.462;6.698;2023-05-10T06:18:01;52.17;;;16.67;;
67861;SDS011;54665;51.462;6.698;2023-05-10T06:20:26;50.90;;;16.43;;
67861;SDS011;54665;51.462;6.698;2023-05-10T06:22:51;50.57;;;16.73;;
67861;SDS011;54665;51.462;6.698;2023-05-10T06:25:17;56.50;;;16.73;;
67861;SDS011;54665;51.462;6.698;2023-05-10T06:27:43;58.93;;;16.50;;
67861;SDS011;54665;51.462;6.698;2023-05-10T06:30:09;56.87;;;16.63;;
67861;SDS011;54665;51.462;6.698;2023-05-10T06:32:35;58.28;;;16.83;;
67861;SDS011;54665;51.462;6.698;2023-05-10T06:35:00;54.73;;;17.40;;
67861;SDS011;54665;51.462;6.698;2023-05-10T06:37:26;58.33;;;17.97;;
67861;SDS011;54665;51.462;6.698;2023-05-10T06:39:51;57.80;;;17.37;;
67861;SDS011;54665;51.462;6.698;2023-05-10T06:42:17;54.57;;;17.57;;
67861;SDS011;54665;51.462;6.698;2023-05-10T06:44:45;52.38;;;17.60;;
67861;SDS011;54665;51.462;6.698;2023-05-10T06:47:10;51.60;;;16.03;;
67861;SDS011;54665;51.462;6.698;2023-05-10T06:49:36;58.30;;;17.80;;
67861;SDS011;54665;51.462;6.698;2023-05-10T06:52:02;52.00;;;16.63;;
67861;SDS011;54665;51.462;6.698;2023-05-10T06:54:27;56.83;;;16.50;;
67861;SDS011;54665;51.462;6.698;2023-05-10T06:56:52;55.93;;;16.80;;
67861;SDS011;54665;51.462;6.698;2023-05-10T06:59:18;51.03;;;16.17;;
67861;SDS011;54665;51.462;6.698;2023-05-10T07:01:44;51.33;;;16.30;;
67861;SDS011;54665;51.462;6.698;2023-05-10T07:04:09;51.28;;;16.00;;
67861;SDS011;54665;51.462;6.698;2023-05-10T07:06:35;52.70;;;16.23;;
67861;SDS011;54665;51.462;6.698;2023-05-10T07:09:01;53.53;;;15.93;;
67861;SDS011;54665;51.462;6.698;2023-05-10T07:11:26;54.15;;;15.85;;
67861;SDS011;54665;51.462;6.698;2023-05-10T07:13:52;50.40;;;15.73;;
67861;SDS011;54665;51.462;6.698;2023-05-10T07:16:17;47.37;;;15.63;;
67861;SDS011;54665;51.462;6.698;2023-05-10T07:18:43;45.70;;;15.23;;
67861;SDS011;54665;51.462;6.698;2023-05-10T07:21:08;47.67;;;15.43;;
67861;SDS011;54665;51.462;6.698;2023-05-10T07:23:34;51.40;;;15.53;;
67861;SDS011;54665;51.462;6.698;2023-05-10T07:25:59;46.15;;;14.65;;
67861;SDS011;54665;51.462;6.698;2023-05-10T07:28:25;46.07;;;15.03;;
67861;SDS011;54665;51.462;6.698;2023-05-10T07:30:50;52.80;;;15.33;;
67861;SDS011;54665;51.462;6.698;2023-05-10T07:33:16;50.05;;;16.05;;
67861;SDS011;54665;51.462;6.698;2023-05-10T07:35:41;47.83;;;15.40;;
67861;SDS011;54665;51.462;6.698;2023-05-10T07:38:08;47.25;;;15.52;;
67861;SDS011;54665;51.462;6.698;2023-05-10T07:40:33;43.67;;;14.37;;
67861;SDS011;54665;51.462;6.698;2023-05-10T07:42:59;52.17;;;15.30;;
67861;SDS011;54665;51.462;6.698;2023-05-10T07:45:26;47.35;;;15.20;;
67861;SDS011;54665;51.462;6.698;2023-05-10T07:47:52;43.95;;;15.07;;
67861;SDS011;54665;51.462;6.698;2023-05-10T07:50:17;45.27;;;15.17;;
67861;SDS011;54665;51.462;6.698;2023-05-10T07:52:43;40.73;;;14.67;;
67861;SDS011;54665;51.462;6.698;2023-05-10T07:55:08;40.20;;;12.33;;
67861;SDS011;54665;51.462;6.698;2023-05-10T07:57:34;38.70;;;14.05;;
67861;SDS011;54665;51.462;6.698;2023-05-10T08:00:00;40.57;;;13.67;;
67861;SDS011;54665;51.462;6.698;2023-05-10T08:02:25;36.88;;;13.30;;
67861;SDS011;54665;51.462;6.698;2023-05-10T08:04:51;43.07;;;13.67;;
67861;SDS011;54665;51.462;6.698;2023-05-10T08:07:17;39.50;;;13.43;;
67861;SDS011;54665;51.462;6.698;2023-05-10T08:09:42;37.70;;;13.93;;
67861;SDS011;54665;51.462;6.698;2023-05-10T08:12:07;43.10;;;14.30;;
67861;SDS011;54665;51.462;6.698;2023-05-10T08:14:33;37.13;;;12.93;;
67861;SDS011;54665;51.462;6.698;2023-05-10T08:16:58;38.92;;;14.13;;
67861;SDS011;54665;51.462;6.698;2023-05-10T08:19:24;36.47;;;12.93;;
67861;SDS011;54665;51.462;6.698;2023-05-10T08:21:49;39.03;;;13.07;;
67861;SDS011;54665;51.462;6.698;2023-05-10T08:24:15;35.77;;;13.43;;
67861;SDS011;54665;51.462;6.698;2023-05-10T08:26:40;34.72;;;12.75;;
67861;SDS011;54665;51.462;6.698;2023-05-10T08:29:05;28.53;;;11.23;;
67861;SDS011;54665;51.462;6.698;2023-05-10T08:31:31;28.87;;;12.03;;
67861;SDS011;54665;51.462;6.698;2023-05-10T08:33:56;29.50;;;11.60;;
67861;SDS011;54665;51.462;6.698;2023-05-10T08:36:22;29.50;;;11.57;;
67861;SDS011;54665;51.462;6.698;2023-05-10T08:38:52;24.27;;;10.23;;
67861;SDS011;54665;51.462;6.698;2023-05-10T08:41:22;31.95;;;10.93;;
67861;SDS011;54665;51.462;6.698;2023-05-10T08:43:52;28.27;;;11.35;;
67861;SDS011;54665;51.462;6.698;2023-05-10T08:46:19;29.35;;;11.50;;
67861;SDS011;54665;51.462;6.698;2023-05-10T08:48:46;30.17;;;11.93;;
67861;SDS011;54665;51.462;6.698;2023-05-10T08:51:22;30.23;;;11.98;;
67861;SDS011;54665;51.462;6.698;2023-05-10T08:53:51;31.67;;;12.07;;
67861;SDS011;54665;51.462;6.698;2023-05-10T08:56:17;30.98;;;11.93;;
67861;SDS011;54665;51.462;6.698;2023-05-10T08:58:43;28.63;;;11.13;;
67861;SDS011;54665;51.462;6.698;2023-05-10T09:01:08;28.33;;;11.15;;
67861;SDS011;54665;51.462;6.698;2023-05-10T09:03:35;24.20;;;10.77;;
67861;SDS011;54665;51.462;6.698;2023-05-10T09:06:03;23.23;;;9.63;;
67861;SDS011;54665;51.462;6.698;2023-05-10T09:08:30;21.77;;;8.90;;
67861;SDS011;54665;51.462;6.698;2023-05-10T09:10:56;20.35;;;9.05;;
67861;SDS011;54665;51.462;6.698;2023-05-10T09:13:22;18.08;;;8.30;;
67861;SDS011;54665;51.462;6.698;2023-05-10T09:15:48;17.80;;;7.87;;
67861;SDS011;54665;51.462;6.698;2023-05-10T09:18:13;17.52;;;7.93;;
67861;SDS011;54665;51.462;6.698;2023-05-10T09:20:39;16.97;;;7.73;;
67861;SDS011;54665;51.462;6.698;2023-05-10T09:23:05;18.27;;;8.45;;
67861;SDS011;54665;51.462;6.698;2023-05-10T09:25:31;18.48;;;8.88;;
67861;SDS011;54665;51.462;6.698;2023-05-10T09:28:00;18.63;;;8.87;;
67861;SDS011;54665;51.462;6.698;2023-05-10T09:30:29;18.98;;;8.55;;
67861;SDS011;54665;51.462;6.698;2023-05-10T09:32:56;20.45;;;8.88;;
67861;SDS011;54665;51.462;6.698;2023-05-10T09:35:23;21.23;;;9.10;;
67861;SDS011;54665;51.462;6.698;2023-05-10T09:37:50;20.03;;;8.50;;
67861;SDS011;54665;51.462;6.698;2023-05-10T09:40:18;20.80;;;9.13;;
67861;SDS011;54665;51.462;6.698;2023-05-10T09:42:51;22.52;;;9.93;;
67861;SDS011;54665;51.462;6.698;2023-05-10T09:45:20;23.95;;;9.93;;
67861;SDS011;54665;51.462;6.698;2023-05-10T09:47:49;23.17;;;10.30;;
67861;SDS011;54665;51.462;6.698;2023-05-10T09:50:14;22.97;;;10.37;;
67861;SDS011;54665;51.462;6.698;2023-05-10T09:52:56;24.53;;;10.17;;
67861;SDS011;54665;51.462;6.698;2023-05-10T09:55:24;23.58;;;10.70;;
67861;SDS011;54665;51.462;6.698;2023-05-10T09:57:58;23.15;;;9.95;;
67861;SDS011;54665;51.462;6.698;2023-05-10T10:00:24;24.07;;;10.13;;
67861;SDS011;54665;51.462;6.698;2023-05-10T10:02:55;21.55;;;9.18;;
67861;SDS011;54665;51.462;6.698;2023-05-10T10:05:27;22.10;;;8.82;;
67861;SDS011;54665;51.462;6.698;2023-05-10T10:07:57;21.50;;;8.82;;
67861;SDS011;54665;51.462;6.698;2023-05-10T10:10:27;22.27;;;9.68;;
67861;SDS011;54665;51.462;6.698;2023-05-10T10:12:53;20.87;;;9.07;;
67861;SDS011;54665;51.462;6.698;2023-05-10T10:15:20;22.33;;;8.85;;
67861;SDS011;54665;51.462;6.698;2023-05-10T10:17:46;19.50;;;9.43;;
67861;SDS011;54665;51.462;6.698;2023-05-10T10:20:11;23.13;;;9.70;;
67861;SDS011;54665;51.462;6.698;2023-05-10T10:22:37;19.73;;;9.38;;
67861;SDS011;54665;51.462;6.698;2023-05-10T10:25:03;22.07;;;9.27;;
67861;SDS011;54665;51.462;6.698;2023-05-10T10:30:17;22.92;;;9.35;;
67861;SDS011;54665;51.462;6.698;2023-05-10T10:35:45;22.05;;;9.45;;
67861;SDS011;54665;51.462;6.698;2023-05-10T10:38:12;22.80;;;9.57;;
67861;SDS011;54665;51.462;6.698;2023-05-10T10:40:38;20.55;;;9.15;;
67861;SDS011;54665;51.462;6.698;2023-05-10T10:43:20;22.75;;;9.63;;
67861;SDS011;54665;51.462;6.698;2023-05-10T10:48:49;22.63;;;10.00;;
67861;SDS011;54665;51.462;6.698;2023-05-10T10:51:16;22.70;;;9.88;;
67861;SDS011;54665;51.462;6.698;2023-05-10T10:53:42;20.93;;;9.87;;
67861;SDS011;54665;51.462;6.698;2023-05-10T10:56:09;21.88;;;9.85;;
67861;SDS011;54665;51.462;6.698;2023-05-10T10:58:37;20.38;;;10.25;;
67861;SDS011;54665;51.462;6.698;2023-05-10T11:01:13;23.38;;;10.38;;
67861;SDS011;54665;51.462;6.698;2023-05-10T11:03:40;20.63;;;9.35;;
67861;SDS011;54665;51.462;6.698;2023-05-10T11:06:28;17.77;;;9.33;;
67861;SDS011;54665;51.462;6.698;2023-05-10T11:08:58;20.25;;;9.73;;
67861;SDS011;54665;51.462;6.698;2023-05-10T11:11:29;20.02;;;9.23;;
67861;SDS011;54665;51.462;6.698;2023-05-10T11:13:55;18.90;;;8.77;;
67861;SDS011;54665;51.462;6.698;2023-05-10T11:16:28;16.93;;;8.97;;
67861;SDS011;54665;51.462;6.698;2023-05-10T11:19:07;19.67;;;8.95;;
67861;SDS011;54665;51.462;6.698;2023-05-10T11:21:36;17.98;;;8.27;;
67861;SDS011;54665;51.462;6.698;2023-05-10T11:24:29;20.67;;;9.10;;
67861;SDS011;54665;51.462;6.698;2023-05-10T11:26:54;16.17;;;7.93;;
67861;SDS011;54665;51.462;6.698;2023-05-10T11:29:21;14.70;;;8.05;;
67861;SDS011;54665;51.462;6.698;2023-05-10T11:31:46;16.53;;;8.03;;
67861;SDS011;54665;51.462;6.698;2023-05-10T11:34:28;17.50;;;8.45;;
67861;SDS011;54665;51.462;6.698;2023-05-10T11:36:55;16.27;;;8.20;;
67861;SDS011;54665;51.462;6.698;2023-05-10T11:39:25;17.00;;;8.13;;
67861;SDS011;54665;51.462;6.698;2023-05-10T11:41:51;21.48;;;8.35;;
67861;SDS011;54665;51.462;6.698;2023-05-10T11:44:16;15.17;;;7.23;;
67861;SDS011;54665;51.462;6.698;2023-05-10T11:46:42;12.60;;;6.43;;
67861;SDS011;54665;51.462;6.698;2023-05-10T11:49:07;12.60;;;6.40;;
67861;SDS011;54665;51.462;6.698;2023-05-10T11:51:34;12.80;;;6.60;;
67861;SDS011;54665;51.462;6.698;2023-05-10T11:54:01;12.80;;;6.32;;
67861;SDS011;54665;51.462;6.698;2023-05-10T11:56:31;11.65;;;6.20;;
67861;SDS011;54665;51.462;6.698;2023-05-10T11:58:57;11.95;;;6.20;;
67861;SDS011;54665;51.462;6.698;2023-05-10T12:01:23;10.43;;;5.60;;
67861;SDS011;54665;51.462;6.698;2023-05-10T12:03:50;11.35;;;5.75;;
67861;SDS011;54665;51.462;6.698;2023-05-10T12:06:18;10.13;;;5.57;;
67861;SDS011;54665;51.462;6.698;2023-05-10T12:08:45;11.27;;;5.60;;
67861;SDS011;54665;51.462;6.698;2023-05-10T12:11:11;11.00;;;5.73;;
67861;SDS011;54665;51.462;6.698;2023-05-10T12:13:39;10.80;;;5.78;;
67861;SDS011;54665;51.462;6.698;2023-05-10T12:16:42;10.70;;;5.82;;
67861;SDS011;54665;51.462;6.698;2023-05-10T12:19:00;11.05;;;5.40;;
67861;SDS011;54665;51.462;6.698;2023-05-10T12:21:26;9.43;;;5.30;;
67861;SDS011;54665;51.462;6.698;2023-05-10T12:23:53;9.45;;;5.28;;
67861;SDS011;54665;51.462;6.698;2023-05-10T12:26:23;9.50;;;5.33;;
67861;SDS011;54665;51.462;6.698;2023-05-10T12:28:51;9.80;;;5.55;;
67861;SDS011;54665;51.462;6.698;2023-05-10T12:31:17;10.23;;;5.50;;
67861;SDS011;54665;51.462;6.698;2023-05-10T12:33:43;9.18;;;5.30;;
67861;SDS011;54665;51.462;6.698;2023-05-10T12:36:10;10.40;;;5.30;;
67861;SDS011;54665;51.462;6.698;2023-05-10T12:38:37;12.05;;;5.65;;
67861;SDS011;54665;51.462;6.698;2023-05-10T12:41:08;10.05;;;5.75;;
67861;SDS011;54665;51.462;6.698;2023-05-10T12:43:38;7.93;;;5.13;;
67861;SDS011;54665;51.462;6.698;2023-05-10T12:46:08;8.88;;;5.00;;
67861;SDS011;54665;51.462;6.698;2023-05-10T12:48:36;9.67;;;4.90;;
67861;SDS011;54665;51.462;6.698;2023-05-10T12:51:02;8.95;;;5.13;;
67861;SDS011;54665;51.462;6.698;2023-05-10T12:53:28;8.60;;;4.88;;
67861;SDS011;54665;51.462;6.698;2023-05-10T12:55:54;10.68;;;5.20;;
67861;SDS011;54665;51.462;6.698;2023-05-10T12:58:20;10.20;;;5.50;;
67861;SDS011;54665;51.462;6.698;2023-05-10T13:00:45;9.43;;;5.80;;
67861;SDS011;54665;51.462;6.698;2023-05-10T13:03:11;10.07;;;5.40;;
67861;SDS011;54665;51.462;6.698;2023-05-10T13:05:36;8.50;;;4.87;;
67861;SDS011;54665;51.462;6.698;2023-05-10T13:08:02;8.57;;;5.20;;
67861;SDS011;54665;51.462;6.698;2023-05-10T13:10:28;7.13;;;4.40;;
67861;SDS011;54665;51.462;6.698;2023-05-10T13:12:54;7.63;;;4.20;;
67861;SDS011;54665;51.462;6.698;2023-05-10T13:15:20;8.35;;;4.32;;
67861;SDS011;54665;51.462;6.698;2023-05-10T13:17:45;8.37;;;4.40;;
67861;SDS011;54665;51.462;6.698;2023-05-10T13:20:11;7.43;;;4.40;;
67861;SDS011;54665;51.462;6.698;2023-05-10T13:22:36;8.60;;;5.20;;
67861;SDS011;54665;51.462;6.698;2023-05-10T13:25:02;10.98;;;5.10;;
67861;SDS011;54665;51.462;6.698;2023-05-10T13:27:27;7.63;;;4.93;;
67861;SDS011;54665;51.462;6.698;2023-05-10T13:29:53;6.25;;;4.10;;
67861;SDS011;54665;51.462;6.698;2023-05-10T13:32:20;7.47;;;4.30;;
67861;SDS011;54665;51.462;6.698;2023-05-10T13:34:45;6.43;;;4.10;;
67861;SDS011;54665;51.462;6.698;2023-05-10T13:37:11;5.93;;;3.97;;
67861;SDS011;54665;51.462;6.698;2023-05-10T13:39:36;8.50;;;4.27;;
67861;SDS011;54665;51.462;6.698;2023-05-10T13:42:02;8.32;;;5.07;;
67861;SDS011;54665;51.462;6.698;2023-05-10T13:44:28;9.52;;;5.85;;
67861;SDS011;54665;51.462;6.698;2023-05-10T13:46:54;9.70;;;6.20;;
67861;SDS011;54665;51.462;6.698;2023-05-10T13:49:20;10.73;;;6.13;;
67861;SDS011;54665;51.462;6.698;2023-05-10T13:51:46;10.63;;;6.43;;
67861;SDS011;54665;51.462;6.698;2023-05-10T13:54:11;13.40;;;6.60;;
67861;SDS011;54665;51.462;6.698;2023-05-10T13:56:37;10.98;;;6.72;;
67861;SDS011;54665;51.462;6.698;2023-05-10T13:59:02;10.50;;;6.20;;
67861;SDS011;54665;51.462;6.698;2023-05-10T14:01:28;12.30;;;6.33;;
67861;SDS011;54665;51.462;6.698;2023-05-10T14:03:53;10.90;;;6.83;;
67861;SDS011;54665;51.462;6.698;2023-05-10T14:06:19;11.63;;;6.88;;
67861;SDS011;54665;51.462;6.698;2023-05-10T14:08:44;9.43;;;6.27;;
67861;SDS011;54665;51.462;6.698;2023-05-10T14:11:10;10.13;;;6.10;;
67861;SDS011;54665;51.462;6.698;2023-05-10T14:13:36;10.60;;;6.07;;
67861;SDS011;54665;51.462;6.698;2023-05-10T14:16:02;7.75;;;4.80;;
67861;SDS011;54665;51.462;6.698;2023-05-10T14:18:27;9.97;;;5.93;;
67861;SDS011;54665;51.462;6.698;2023-05-10T14:20:53;8.55;;;5.78;;
67861;SDS011;54665;51.462;6.698;2023-05-10T14:23:18;11.37;;;4.97;;
67861;SDS011;54665;51.462;6.698;2023-05-10T14:25:49;7.32;;;5.05;;
67861;SDS011;54665;51.462;6.698;2023-05-10T14:28:16;8.82;;;5.20;;
67861;SDS011;54665;51.462;6.698;2023-05-10T14:30:42;7.43;;;5.00;;
67861;SDS011;54665;51.462;6.698;2023-05-10T14:33:08;9.77;;;5.97;;
67861;SDS011;54665;51.462;6.698;2023-05-10T14:35:33;10.73;;;6.30;;
67861;SDS011;54665;51.462;6.698;2023-05-10T14:37:59;11.83;;;6.70;;
67861;SDS011;54665;51.462;6.698;2023-05-10T14:40:24;12.60;;;7.83;;
67861;SDS011;54665;51.462;6.698;2023-05-10T14:42:51;13.50;;;8.23;;
67861;SDS011;54665;51.462;6.698;2023-05-10T14:45:18;13.07;;;7.43;;
67861;SDS011;54665;51.462;6.698;2023-05-10T14:47:43;17.37;;;9.07;;
67861;SDS011;54665;51.462;6.698;2023-05-10T14:50:08;14.73;;;7.93;;